createdAt,value
2022-11-28T00:00:45.670Z,100899.72
2022-11-28T00:06:40.308Z,100895.84
2022-11-28T00:12:34.120Z,100893.59
2022-11-28T00:18:27.018Z,100880.28
2022-11-28T00:24:19.723Z,100870.09
2022-11-28T00:30:11.931Z,100859.91
2022-11-28T00:36:05.737Z,100863.25
2022-11-28T00:41:57.330Z,100860.47
2022-11-28T00:47:50.022Z,100856.00
2022-11-28T00:53:43.919Z,100852.22
2022-11-28T00:59:36.668Z,100859.06
2022-11-28T01:05:28.810Z,100852.19
2022-11-28T01:11:21.348Z,100844.56
2022-11-28T01:17:13.623Z,100841.94
2022-11-28T01:23:05.941Z,100834.31
2022-11-28T01:29:00.232Z,100821.63
2022-11-28T01:34:53.029Z,100808.72
2022-11-28T01:40:46.870Z,100797.75
2022-11-28T01:46:38.891Z,100792.66
2022-11-28T01:52:31.159Z,100788.38
2022-11-28T01:58:24.529Z,100788.81
2022-11-28T02:04:16.900Z,100776.50
2022-11-28T02:10:12.395Z,100776.53
2022-11-28T02:16:26.463Z,100761.63
2022-11-28T02:22:34.408Z,100751.75
2022-11-28T02:28:49.038Z,100748.94
2022-11-28T02:34:47.281Z,100754.91
2022-11-28T02:40:57.579Z,100746.38
2022-11-28T02:46:55.491Z,100744.34
2022-11-28T02:52:55.911Z,100748.97
2022-11-28T02:58:48.068Z,100743.50
2022-11-28T03:04:52.119Z,100746.34
2022-11-28T03:11:10.699Z,100744.88
2022-11-28T03:17:21.979Z,100736.28
2022-11-28T03:23:16.516Z,100728.25
2022-11-28T03:29:37.267Z,100723.16
2022-11-28T03:35:34.381Z,100729.78
2022-11-28T03:41:39.129Z,100718.56
2022-11-28T03:47:37.909Z,100710.13
2022-11-28T03:53:42.839Z,100705.53
2022-11-28T03:59:49.298Z,100702.03
2022-11-28T04:06:06.119Z,100698.31
2022-11-28T04:12:05.049Z,100691.78
2022-11-28T04:18:11.094Z,100692.66
2022-11-28T04:24:08.540Z,100690.13
2022-11-28T04:30:03.621Z,100681.88
2022-11-28T04:35:57.219Z,100688.78
2022-11-28T04:41:54.339Z,100677.44
2022-11-28T04:47:46.259Z,100672.84
2022-11-28T04:54:05.019Z,100681.44
2022-11-28T04:59:57.850Z,100683.47
2022-11-28T05:05:51.961Z,100679.72
2022-11-28T05:11:44.184Z,100678.31
2022-11-28T05:17:41.698Z,100676.50
2022-11-28T05:23:34.085Z,100682.94
2022-11-28T05:29:26.190Z,100685.81
2022-11-28T05:35:18.563Z,100685.16
2022-11-28T05:41:22.421Z,100674.56
2022-11-28T05:47:16.096Z,100676.06
2022-11-28T05:53:09.306Z,100675.88
2022-11-28T05:59:01.501Z,100668.94
2022-11-28T06:04:53.687Z,100654.78
2022-11-28T06:10:46.507Z,100652.72
2022-11-28T06:16:38.590Z,100650.53
2022-11-28T06:22:31.308Z,100658.72
2022-11-28T06:28:23.539Z,100649.84
2022-11-28T06:34:15.577Z,100648.16
2022-11-28T06:40:08.230Z,100644.91
2022-11-28T06:46:00.980Z,100640.34
2022-11-28T06:51:53.909Z,100628.16
2022-11-28T06:57:46.780Z,100629.97
2022-11-28T07:03:45.024Z,100629.75
2022-11-28T07:09:38.308Z,100643.75
2022-11-28T07:15:31.290Z,100637.13
2022-11-28T07:21:24.807Z,100638.16
2022-11-28T07:27:18.221Z,100644.31
2022-11-28T07:33:11.745Z,100639.06
2022-11-28T07:39:06.063Z,100637.75
2022-11-28T07:44:58.685Z,100621.00
2022-11-28T07:50:50.667Z,100620.94
2022-11-28T07:57:11.844Z,100615.16
2022-11-28T08:02:54.700Z,100616.19
2022-11-28T08:08:47.543Z,100615.44
2022-11-28T08:14:39.647Z,100623.00
2022-11-28T08:20:31.705Z,100609.59
2022-11-28T08:26:29.092Z,100607.09
2022-11-28T08:32:23.139Z,100598.81
2022-11-28T08:38:16.081Z,100596.59
2022-11-28T08:44:09.185Z,100583.28
2022-11-28T08:50:02.303Z,100578.50
2022-11-28T08:55:54.951Z,100580.91
2022-11-28T09:01:46.989Z,100567.00
2022-11-28T09:07:39.715Z,100571.22
2022-11-28T09:13:32.223Z,100568.06
2022-11-28T09:19:24.784Z,100559.34
2022-11-28T09:25:17.268Z,100556.63
2022-11-28T09:31:13.020Z,100564.41
2022-11-28T09:37:05.250Z,100561.72
2022-11-28T09:43:06.383Z,100548.44
2022-11-28T09:49:03.546Z,100538.41
2022-11-28T09:55:28.492Z,100520.66
2022-11-28T10:01:43.330Z,100521.53
2022-11-28T10:08:04.799Z,100512.00
2022-11-28T10:14:29.229Z,100504.84
2022-11-28T10:20:25.932Z,100503.84
2022-11-28T10:26:17.913Z,100486.31
2022-11-28T10:32:16.683Z,100484.97
2022-11-28T10:38:14.215Z,100487.78
2022-11-28T10:44:33.803Z,100478.38
2022-11-28T10:50:44.301Z,100472.88
2022-11-28T10:57:03.153Z,100462.13
2022-11-28T11:02:57.125Z,100454.25
2022-11-28T11:08:49.583Z,100453.34
2022-11-28T11:14:43.884Z,100454.91
2022-11-28T11:20:39.403Z,100443.56
2022-11-28T11:26:42.481Z,100429.28
2022-11-28T11:32:35.604Z,100428.53
2022-11-28T11:38:37.922Z,100427.19
2022-11-28T11:44:34.931Z,100419.78
2022-11-28T11:50:33.371Z,100411.94
2022-11-28T11:56:26.101Z,100401.13
2022-11-28T12:02:33.102Z,100396.31
2022-11-28T12:08:34.162Z,100402.53
2022-11-28T12:14:33.128Z,100397.34
2022-11-28T12:20:50.282Z,100393.47
2022-11-28T12:26:47.909Z,100399.09
2022-11-28T12:32:59.586Z,100388.91
2022-11-28T12:39:05.066Z,100391.69
2022-11-28T12:45:09.383Z,100381.94
2022-11-28T12:51:23.197Z,100384.66
2022-11-28T12:57:34.701Z,100387.34
2022-11-28T13:04:01.745Z,100373.59
2022-11-28T13:10:45.544Z,100378.44
2022-11-28T13:16:55.943Z,100374.16
2022-11-28T13:22:57.823Z,100378.22
2022-11-28T13:28:57.785Z,100373.53
2022-11-28T13:34:51.223Z,100374.06
2022-11-28T13:40:49.634Z,100369.06
2022-11-28T13:46:44.218Z,100366.72
2022-11-28T13:52:43.226Z,100368.19
2022-11-28T13:58:49.542Z,100372.47
2022-11-28T14:04:44.637Z,100370.53
2022-11-28T14:10:50.327Z,100371.66
2022-11-28T14:17:12.183Z,100371.44
2022-11-28T14:23:20.141Z,100376.28
2022-11-28T14:29:35.367Z,100370.00
2022-11-28T14:35:52.710Z,100371.16
2022-11-28T14:42:06.994Z,100375.66
2022-11-28T14:48:19.835Z,100380.69
2022-11-28T14:54:26.100Z,100379.25
2022-11-28T15:00:38.804Z,100387.16
2022-11-28T15:06:38.311Z,100379.72
2022-11-28T15:12:44.363Z,100384.03
2022-11-28T15:18:41.217Z,100383.13
2022-11-28T15:24:36.485Z,100395.38
2022-11-28T15:30:28.778Z,100381.56
2022-11-28T15:36:28.700Z,100389.13
2022-11-28T15:42:24.611Z,100387.59
2022-11-28T15:48:27.745Z,100389.19
2022-11-28T15:54:34.771Z,100390.66
2022-11-28T16:00:27.096Z,100388.69
2022-11-28T16:06:22.774Z,100396.31
2022-11-28T16:12:15.441Z,100398.31
2022-11-28T16:18:18.203Z,100403.47
2022-11-28T16:24:26.209Z,100408.91
2022-11-28T16:30:27.323Z,100397.97
2022-11-28T16:36:25.060Z,100397.34
2022-11-28T16:42:20.562Z,100394.94
2022-11-28T16:48:19.681Z,100397.09
2022-11-28T16:54:23.026Z,100404.53
2022-11-28T17:00:15.765Z,100404.38
2022-11-28T17:06:40.921Z,100396.84
2022-11-28T17:12:37.480Z,100395.03
2022-11-28T17:18:30.262Z,100404.00
2022-11-28T17:24:27.683Z,100404.44
2022-11-28T17:30:21.623Z,100392.53
2022-11-28T17:36:14.169Z,100402.97
2022-11-28T17:42:06.741Z,100394.25
2022-11-28T17:47:59.955Z,100388.88
2022-11-28T17:53:53.404Z,100383.53
2022-11-28T17:59:46.219Z,100393.72
2022-11-28T18:05:43.583Z,100399.41
2022-11-28T18:11:38.809Z,100394.94
2022-11-28T18:17:31.522Z,100397.00
2022-11-28T18:23:26.159Z,100392.25
2022-11-28T18:29:18.160Z,100392.38
2022-11-28T18:35:10.967Z,100387.88
2022-11-28T18:41:15.701Z,100385.59
2022-11-28T18:47:11.068Z,100383.56
2022-11-28T18:53:04.532Z,100382.59
2022-11-28T18:58:58.547Z,100378.63
2022-11-28T19:04:51.877Z,100382.25
2022-11-28T19:10:44.982Z,100377.47
2022-11-28T19:16:38.579Z,100386.50
2022-11-28T19:22:32.186Z,100396.38
2022-11-28T19:28:24.862Z,100382.25
2022-11-28T19:34:19.256Z,100389.41
2022-11-28T19:40:12.122Z,100385.69
2022-11-28T19:46:05.718Z,100385.63
2022-11-28T19:51:59.906Z,100392.56
2022-11-28T19:57:53.084Z,100390.09
2022-11-28T20:03:48.031Z,100398.50
2022-11-28T20:09:40.734Z,100389.41
2022-11-28T20:15:37.529Z,100388.31
2022-11-28T20:21:30.403Z,100391.72
2022-11-28T20:27:22.574Z,100393.31
2022-11-28T20:33:14.826Z,100384.84
2022-11-28T20:39:10.499Z,100387.88
2022-11-28T20:45:03.785Z,100382.00
2022-11-28T20:50:56.685Z,100387.19
2022-11-28T21:03:01.846Z,100395.59
2022-11-28T21:08:53.724Z,100398.50
2022-11-28T21:14:46.221Z,100396.31
2022-11-28T21:20:45.605Z,100401.47
2022-11-28T21:26:42.451Z,100406.81
2022-11-28T21:32:36.523Z,100398.59
2022-11-28T21:38:29.882Z,100402.19
2022-11-28T21:44:21.808Z,100389.56
2022-11-28T21:50:15.068Z,100391.59
2022-11-28T21:56:10.242Z,100392.28
2022-11-28T22:02:07.180Z,100389.22
2022-11-28T22:08:03.302Z,100385.06
2022-11-28T22:13:56.148Z,100387.25
2022-11-28T22:19:48.826Z,100381.03
2022-11-28T22:25:49.648Z,100394.91
2022-11-28T22:31:42.269Z,100397.94
2022-11-28T22:37:34.687Z,100390.28
2022-11-28T22:43:27.128Z,100390.59
2022-11-28T22:49:20.141Z,100389.50
2022-11-28T22:55:13.410Z,100387.63
2022-11-28T23:01:11.448Z,100393.88
2022-11-28T23:07:03.948Z,100383.22
2022-11-28T23:12:56.950Z,100380.47
2022-11-28T23:18:51.903Z,100375.78
2022-11-28T23:24:45.187Z,100377.19
2022-11-28T23:30:37.900Z,100388.34
2022-11-28T23:36:36.987Z,100389.41
2022-11-28T23:42:33.344Z,100385.81
2022-11-28T23:48:26.784Z,100379.41
2022-11-28T23:54:19.101Z,100381.50
